sensor_id;sensor_type;location;lat;lon;timestamp;P1;durP1;ratioP1;P2;durP2;ratioP2
44126;SDS011;29786;50.798;7.302;2022-11-20T00:00:23;16.6;;;12.9;;
44126;SDS011;29786;50.798;7.302;2022-11-20T00:01:24;18;;;12.8;;
44126;SDS011;29786;50.798;7.302;2022-11-20T00:02:23;16.1;;;12.6;;
44126;SDS011;29786;50.798;7.302;2022-11-20T00:03:23;17.5;;;12.5;;
44126;SDS011;29786;50.798;7.302;2022-11-20T00:04:23;16.8;;;12.1;;
44126;SDS011;29786;50.798;7.302;2022-11-20T00:05:23;16.9;;;12.2;;
44126;SDS011;29786;50.798;7.302;2022-11-20T00:06:23;16.7;;;12.1;;
44126;SDS011;29786;50.798;7.302;2022-11-20T00:07:23;14.7;;;12.2;;
44126;SDS011;29786;50.798;7.302;2022-11-20T00:08:23;17.5;;;13.5;;
44126;SDS011;29786;50.798;7.302;2022-11-20T00:09:23;15.6;;;12.3;;
44126;SDS011;29786;50.798;7.302;2022-11-20T00:10:23;17.6;;;12.5;;
44126;SDS011;29786;50.798;7.302;2022-11-20T00:11:23;16.8;;;12.8;;
44126;SDS011;29786;50.798;7.302;2022-11-20T00:12:23;16.5;;;13.3;;
44126;SDS011;29786;50.798;7.302;2022-11-20T00:13:23;17;;;12.9;;
44126;SDS011;29786;50.798;7.302;2022-11-20T00:14:23;15.5;;;11.8;;
44126;SDS011;29786;50.798;7.302;2022-11-20T00:15:23;16.4;;;12.9;;
44126;SDS011;29786;50.798;7.302;2022-11-20T00:16:23;16.3;;;12.5;;
44126;SDS011;29786;50.798;7.302;2022-11-20T00:17:23;16.6;;;12.5;;
44126;SDS011;29786;50.798;7.302;2022-11-20T00:18:23;16.1;;;11.7;;
44126;SDS011;29786;50.798;7.302;2022-11-20T00:19:23;14.1;;;11.8;;
44126;SDS011;29786;50.798;7.302;2022-11-20T00:20:23;17.1;;;12.9;;
44126;SDS011;29786;50.798;7.302;2022-11-20T00:21:24;14.9;;;11.9;;
44126;SDS011;29786;50.798;7.302;2022-11-20T00:22:23;14.8;;;11.8;;
44126;SDS011;29786;50.798;7.302;2022-11-20T00:23:23;18.2;;;12.8;;
44126;SDS011;29786;50.798;7.302;2022-11-20T00:24:23;15.3;;;12.1;;
44126;SDS011;29786;50.798;7.302;2022-11-20T00:25:23;17.8;;;12.9;;
44126;SDS011;29786;50.798;7.302;2022-11-20T00:26:24;18;;;13.1;;
44126;SDS011;29786;50.798;7.302;2022-11-20T00:27:23;18.5;;;14.8;;
44126;SDS011;29786;50.798;7.302;2022-11-20T00:28:23;17.3;;;12.4;;
44126;SDS011;29786;50.798;7.302;2022-11-20T00:29:23;14.4;;;11.4;;
44126;SDS011;29786;50.798;7.302;2022-11-20T00:30:23;16.9;;;12.6;;
44126;SDS011;29786;50.798;7.302;2022-11-20T00:31:23;16.6;;;13;;
44126;SDS011;29786;50.798;7.302;2022-11-20T00:32:23;15.9;;;12.6;;
44126;SDS011;29786;50.798;7.302;2022-11-20T00:33:23;16.9;;;12.3;;
44126;SDS011;29786;50.798;7.302;2022-11-20T00:34:23;15.6;;;12.1;;
44126;SDS011;29786;50.798;7.302;2022-11-20T00:35:23;15.7;;;12.3;;
44126;SDS011;29786;50.798;7.302;2022-11-20T00:36:24;17.6;;;12.9;;
44126;SDS011;29786;50.798;7.302;2022-11-20T00:37:23;16.5;;;12.2;;
44126;SDS011;29786;50.798;7.302;2022-11-20T00:38:23;15;;;11.7;;
44126;SDS011;29786;50.798;7.302;2022-11-20T00:39:23;18;;;12.6;;
44126;SDS011;29786;50.798;7.302;2022-11-20T00:40:23;15.5;;;11.8;;
44126;SDS011;29786;50.798;7.302;2022-11-20T00:41:23;16.7;;;12.8;;
44126;SDS011;29786;50.798;7.302;2022-11-20T00:42:23;15.4;;;12.2;;
44126;SDS011;29786;50.798;7.302;2022-11-20T00:43:23;15.5;;;11.9;;
44126;SDS011;29786;50.798;7.302;2022-11-20T00:44:23;19.1;;;14.6;;
44126;SDS011;29786;50.798;7.302;2022-11-20T00:45:23;15.3;;;12.3;;
44126;SDS011;29786;50.798;7.302;2022-11-20T00:46:24;16.4;;;12.7;;
44126;SDS011;29786;50.798;7.302;2022-11-20T00:47:23;18.7;;;13.2;;
44126;SDS011;29786;50.798;7.302;2022-11-20T00:48:23;16.5;;;12.3;;
44126;SDS011;29786;50.798;7.302;2022-11-20T00:49:23;16.9;;;12.5;;
44126;SDS011;29786;50.798;7.302;2022-11-20T00:50:23;16.6;;;12.5;;
44126;SDS011;29786;50.798;7.302;2022-11-20T00:51:23;16.9;;;12.7;;
44126;SDS011;29786;50.798;7.302;2022-11-20T00:52:23;16.2;;;12;;
44126;SDS011;29786;50.798;7.302;2022-11-20T00:53:23;14;;;11.2;;
44126;SDS011;29786;50.798;7.302;2022-11-20T00:54:23;16.1;;;12.4;;
44126;SDS011;29786;50.798;7.302;2022-11-20T00:55:23;16.4;;;12.1;;
44126;SDS011;29786;50.798;7.302;2022-11-20T00:56:23;14.9;;;11.7;;
44126;SDS011;29786;50.798;7.302;2022-11-20T00:57:23;17.3;;;12.6;;
44126;SDS011;29786;50.798;7.302;2022-11-20T00:58:23;16.7;;;12.5;;
44126;SDS011;29786;50.798;7.302;2022-11-20T00:59:23;17.4;;;13.4;;
44126;SDS011;29786;50.798;7.302;2022-11-20T01:00:23;17;;;13;;
44126;SDS011;29786;50.798;7.302;2022-11-20T01:01:24;15;;;11.9;;
44126;SDS011;29786;50.798;7.302;2022-11-20T01:02:23;16.9;;;12.3;;
44126;SDS011;29786;50.798;7.302;2022-11-20T01:03:23;16.5;;;12.4;;
44126;SDS011;29786;50.798;7.302;2022-11-20T01:04:23;16.2;;;12.4;;
44126;SDS011;29786;50.798;7.302;2022-11-20T01:05:23;15.2;;;11.4;;
44126;SDS011;29786;50.798;7.302;2022-11-20T01:06:27;14.9;;;12;;
44126;SDS011;29786;50.798;7.302;2022-11-20T01:07:23;14.8;;;11.8;;
44126;SDS011;29786;50.798;7.302;2022-11-20T01:08:23;17.6;;;12.4;;
44126;SDS011;29786;50.798;7.302;2022-11-20T01:09:23;16.1;;;12.7;;
44126;SDS011;29786;50.798;7.302;2022-11-20T01:10:23;16.2;;;12.6;;
44126;SDS011;29786;50.798;7.302;2022-11-20T01:11:24;14.6;;;11.7;;
44126;SDS011;29786;50.798;7.302;2022-11-20T01:12:23;15.6;;;12.6;;
44126;SDS011;29786;50.798;7.302;2022-11-20T01:13:23;15.4;;;11.7;;
44126;SDS011;29786;50.798;7.302;2022-11-20T01:14:23;17.7;;;12.9;;
44126;SDS011;29786;50.798;7.302;2022-11-20T01:15:23;19.8;;;13.3;;
44126;SDS011;29786;50.798;7.302;2022-11-20T01:16:24;17.7;;;12.7;;
44126;SDS011;29786;50.798;7.302;2022-11-20T01:17:23;17.6;;;13.5;;
44126;SDS011;29786;50.798;7.302;2022-11-20T01:18:23;17.5;;;12.4;;
44126;SDS011;29786;50.798;7.302;2022-11-20T01:19:23;16.4;;;12;;
44126;SDS011;29786;50.798;7.302;2022-11-20T01:20:23;17;;;13.2;;
44126;SDS011;29786;50.798;7.302;2022-11-20T01:21:24;17.5;;;12.6;;
44126;SDS011;29786;50.798;7.302;2022-11-20T01:22:23;17.6;;;12.8;;
44126;SDS011;29786;50.798;7.302;2022-11-20T01:23:23;14.9;;;12;;
44126;SDS011;29786;50.798;7.302;2022-11-20T01:24:23;18.6;;;13.1;;
44126;SDS011;29786;50.798;7.302;2022-11-20T01:25:23;15.3;;;12;;
44126;SDS011;29786;50.798;7.302;2022-11-20T01:26:24;16.7;;;12.3;;
44126;SDS011;29786;50.798;7.302;2022-11-20T01:27:23;17.4;;;12.7;;
44126;SDS011;29786;50.798;7.302;2022-11-20T01:28:23;15.8;;;12.1;;
44126;SDS011;29786;50.798;7.302;2022-11-20T01:29:23;17;;;12.5;;
44126;SDS011;29786;50.798;7.302;2022-11-20T01:30:23;16.3;;;12.5;;
44126;SDS011;29786;50.798;7.302;2022-11-20T01:31:24;16.8;;;13.1;;
44126;SDS011;29786;50.798;7.302;2022-11-20T01:32:23;15;;;12.5;;
44126;SDS011;29786;50.798;7.302;2022-11-20T01:33:23;17.2;;;12.5;;
44126;SDS011;29786;50.798;7.302;2022-11-20T01:34:23;15.3;;;12;;
44126;SDS011;29786;50.798;7.302;2022-11-20T01:35:23;17.3;;;12.1;;
44126;SDS011;29786;50.798;7.302;2022-11-20T01:36:25;15.8;;;11.7;;
44126;SDS011;29786;50.798;7.302;2022-11-20T01:37:23;16.7;;;12.7;;
44126;SDS011;29786;50.798;7.302;2022-11-20T01:38:23;15.4;;;12;;
44126;SDS011;29786;50.798;7.302;2022-11-20T01:39:24;17;;;12;;
44126;SDS011;29786;50.798;7.302;2022-11-20T01:40:23;15.3;;;12.2;;
44126;SDS011;29786;50.798;7.302;2022-11-20T01:41:23;16.1;;;12.8;;
44126;SDS011;29786;50.798;7.302;2022-11-20T01:42:23;16.5;;;12.6;;
44126;SDS011;29786;50.798;7.302;2022-11-20T01:43:23;16.2;;;12.4;;
44126;SDS011;29786;50.798;7.302;2022-11-20T01:44:56;15.2;;;11.3;;
44126;SDS011;29786;50.798;7.302;2022-11-20T01:45:56;17.1;;;13.1;;
44126;SDS011;29786;50.798;7.302;2022-11-20T01:46:23;16.6;;;12.3;;
44126;SDS011;29786;50.798;7.302;2022-11-20T01:47:40;15.7;;;12.3;;
44126;SDS011;29786;50.798;7.302;2022-11-20T01:48:23;16.2;;;12.5;;
44126;SDS011;29786;50.798;7.302;2022-11-20T01:49:24;17.5;;;12.5;;
44126;SDS011;29786;50.798;7.302;2022-11-20T01:50:24;15.9;;;12.1;;
44126;SDS011;29786;50.798;7.302;2022-11-20T01:51:25;15.7;;;12.3;;
44126;SDS011;29786;50.798;7.302;2022-11-20T01:52:24;18.8;;;13.4;;
44126;SDS011;29786;50.798;7.302;2022-11-20T01:53:24;18.6;;;12.8;;
44126;SDS011;29786;50.798;7.302;2022-11-20T01:54:24;16;;;12.2;;
44126;SDS011;29786;50.798;7.302;2022-11-20T01:55:25;14.6;;;11.4;;
44126;SDS011;29786;50.798;7.302;2022-11-20T01:56:23;19.7;;;13.2;;
44126;SDS011;29786;50.798;7.302;2022-11-20T01:57:23;17.3;;;13;;
44126;SDS011;29786;50.798;7.302;2022-11-20T01:58:25;17.6;;;12.3;;
44126;SDS011;29786;50.798;7.302;2022-11-20T01:59:23;15.8;;;12.3;;
44126;SDS011;29786;50.798;7.302;2022-11-20T02:00:23;14.6;;;11;;
44126;SDS011;29786;50.798;7.302;2022-11-20T02:01:23;16.9;;;12.9;;
44126;SDS011;29786;50.798;7.302;2022-11-20T02:02:23;16.4;;;12.7;;
44126;SDS011;29786;50.798;7.302;2022-11-20T02:03:23;16.7;;;13.1;;
44126;SDS011;29786;50.798;7.302;2022-11-20T02:04:23;17.3;;;12.9;;
44126;SDS011;29786;50.798;7.302;2022-11-20T02:05:42;18.1;;;12.8;;
44126;SDS011;29786;50.798;7.302;2022-11-20T02:06:25;16.7;;;12.7;;
44126;SDS011;29786;50.798;7.302;2022-11-20T02:07:23;16.6;;;13.4;;
44126;SDS011;29786;50.798;7.302;2022-11-20T02:08:23;15.2;;;11.9;;
44126;SDS011;29786;50.798;7.302;2022-11-20T02:09:23;14.5;;;11.5;;
44126;SDS011;29786;50.798;7.302;2022-11-20T02:10:23;16;;;12.7;;
44126;SDS011;29786;50.798;7.302;2022-11-20T02:11:23;15;;;11.7;;
44126;SDS011;29786;50.798;7.302;2022-11-20T02:12:23;18.4;;;13.6;;
44126;SDS011;29786;50.798;7.302;2022-11-20T02:13:23;17.7;;;12.6;;
44126;SDS011;29786;50.798;7.302;2022-11-20T02:14:23;15.7;;;11.7;;
44126;SDS011;29786;50.798;7.302;2022-11-20T02:15:23;17.4;;;12.7;;
44126;SDS011;29786;50.798;7.302;2022-11-20T02:16:25;16.1;;;12.6;;
44126;SDS011;29786;50.798;7.302;2022-11-20T02:17:23;17.8;;;13;;
44126;SDS011;29786;50.798;7.302;2022-11-20T02:18:23;17.7;;;12.8;;
44126;SDS011;29786;50.798;7.302;2022-11-20T02:19:24;17.9;;;12.6;;
44126;SDS011;29786;50.798;7.302;2022-11-20T02:20:23;15.4;;;11.9;;
44126;SDS011;29786;50.798;7.302;2022-11-20T02:21:25;16.3;;;12.6;;
44126;SDS011;29786;50.798;7.302;2022-11-20T02:22:25;15.4;;;12.2;;
44126;SDS011;29786;50.798;7.302;2022-11-20T02:23:27;14.6;;;11.5;;
44126;SDS011;29786;50.798;7.302;2022-11-20T02:24:23;15.7;;;11.9;;
44126;SDS011;29786;50.798;7.302;2022-11-20T02:25:23;17.4;;;12.7;;
44126;SDS011;29786;50.798;7.302;2022-11-20T02:26:23;17;;;13.4;;
44126;SDS011;29786;50.798;7.302;2022-11-20T02:27:23;17.1;;;11.8;;
44126;SDS011;29786;50.798;7.302;2022-11-20T02:28:23;17;;;12.7;;
44126;SDS011;29786;50.798;7.302;2022-11-20T02:29:25;16.2;;;12.8;;
44126;SDS011;29786;50.798;7.302;2022-11-20T02:30:23;18.7;;;13.2;;
44126;SDS011;29786;50.798;7.302;2022-11-20T02:31:23;16.6;;;13.2;;
44126;SDS011;29786;50.798;7.302;2022-11-20T02:32:24;16.5;;;12.7;;
44126;SDS011;29786;50.798;7.302;2022-11-20T02:33:23;17.4;;;13.4;;
44126;SDS011;29786;50.798;7.302;2022-11-20T02:34:23;17.7;;;13.7;;
44126;SDS011;29786;50.798;7.302;2022-11-20T02:36:23;17.8;;;12.8;;
44126;SDS011;29786;50.798;7.302;2022-11-20T02:37:23;16;;;12.8;;
44126;SDS011;29786;50.798;7.302;2022-11-20T02:38:23;18.5;;;13.6;;
44126;SDS011;29786;50.798;7.302;2022-11-20T02:39:24;16.6;;;12.3;;
44126;SDS011;29786;50.798;7.302;2022-11-20T02:40:23;18.7;;;14;;
44126;SDS011;29786;50.798;7.302;2022-11-20T02:41:30;17;;;13.1;;
44126;SDS011;29786;50.798;7.302;2022-11-20T02:42:23;17.1;;;13.3;;
44126;SDS011;29786;50.798;7.302;2022-11-20T02:43:23;19.7;;;13.8;;
44126;SDS011;29786;50.798;7.302;2022-11-20T02:44:23;20.1;;;14;;
44126;SDS011;29786;50.798;7.302;2022-11-20T02:45:23;18;;;13;;
44126;SDS011;29786;50.798;7.302;2022-11-20T02:46:23;17.9;;;13.2;;
44126;SDS011;29786;50.798;7.302;2022-11-20T02:47:23;18.2;;;13.6;;
44126;SDS011;29786;50.798;7.302;2022-11-20T02:48:23;18.2;;;13;;
44126;SDS011;29786;50.798;7.302;2022-11-20T02:49:23;17.7;;;13.2;;
44126;SDS011;29786;50.798;7.302;2022-11-20T02:50:23;18.9;;;13.1;;
44126;SDS011;29786;50.798;7.302;2022-11-20T02:51:23;16.3;;;12.8;;
44126;SDS011;29786;50.798;7.302;2022-11-20T02:52:23;17.8;;;13.2;;
44126;SDS011;29786;50.798;7.302;2022-11-20T02:53:23;17.6;;;13;;
44126;SDS011;29786;50.798;7.302;2022-11-20T02:54:23;17.2;;;12.8;;
44126;SDS011;29786;50.798;7.302;2022-11-20T02:55:23;16.6;;;13.1;;
44126;SDS011;29786;50.798;7.302;2022-11-20T02:56:23;17.1;;;12.4;;
44126;SDS011;29786;50.798;7.302;2022-11-20T02:57:23;18.6;;;13.1;;
44126;SDS011;29786;50.798;7.302;2022-11-20T02:58:23;17;;;13;;
44126;SDS011;29786;50.798;7.302;2022-11-20T02:59:23;18.5;;;14.1;;
44126;SDS011;29786;50.798;7.302;2022-11-20T03:00:23;16.9;;;13;;
44126;SDS011;29786;50.798;7.302;2022-11-20T03:01:23;16.6;;;12.9;;
44126;SDS011;29786;50.798;7.302;2022-11-20T03:02:23;17.3;;;12.7;;
44126;SDS011;29786;50.798;7.302;2022-11-20T03:03:23;18.1;;;12.6;;
44126;SDS011;29786;50.798;7.302;2022-11-20T03:04:23;17.3;;;12.9;;
44126;SDS011;29786;50.798;7.302;2022-11-20T03:05:23;17.1;;;13.3;;
44126;SDS011;29786;50.798;7.302;2022-11-20T03:06:23;16.8;;;12.2;;
44126;SDS011;29786;50.798;7.302;2022-11-20T03:07:23;16.8;;;12.8;;
44126;SDS011;29786;50.798;7.302;2022-11-20T03:08:23;16.2;;;12.1;;
44126;SDS011;29786;50.798;7.302;2022-11-20T03:09:23;17.1;;;12.5;;
44126;SDS011;29786;50.798;7.302;2022-11-20T03:10:23;17.6;;;13;;
44126;SDS011;29786;50.798;7.302;2022-11-20T03:11:23;18.1;;;12.4;;
44126;SDS011;29786;50.798;7.302;2022-11-20T03:12:23;18;;;12.7;;
44126;SDS011;29786;50.798;7.302;2022-11-20T03:13:24;15.3;;;11.4;;
44126;SDS011;29786;50.798;7.302;2022-11-20T03:14:23;15.1;;;11.8;;
44126;SDS011;29786;50.798;7.302;2022-11-20T03:15:23;15.7;;;12.3;;
44126;SDS011;29786;50.798;7.302;2022-11-20T03:16:23;17.1;;;12.2;;
44126;SDS011;29786;50.798;7.302;2022-11-20T03:17:23;17;;;11.8;;
44126;SDS011;29786;50.798;7.302;2022-11-20T03:18:23;16.4;;;12.1;;
44126;SDS011;29786;50.798;7.302;2022-11-20T03:19:23;14.6;;;11.3;;
44126;SDS011;29786;50.798;7.302;2022-11-20T03:20:23;16.2;;;12;;
44126;SDS011;29786;50.798;7.302;2022-11-20T03:21:23;13.8;;;10.6;;
44126;SDS011;29786;50.798;7.302;2022-11-20T03:22:23;15.8;;;12;;
44126;SDS011;29786;50.798;7.302;2022-11-20T03:23:23;16.6;;;12;;
44126;SDS011;29786;50.798;7.302;2022-11-20T03:24:23;17.2;;;11.7;;
44126;SDS011;29786;50.798;7.302;2022-11-20T03:25:23;17;;;11.4;;
44126;SDS011;29786;50.798;7.302;2022-11-20T03:26:24;16.4;;;11.8;;
44126;SDS011;29786;50.798;7.302;2022-11-20T03:27:23;16.1;;;11.8;;
44126;SDS011;29786;50.798;7.302;2022-11-20T03:28:23;16.6;;;11.9;;
44126;SDS011;29786;50.798;7.302;2022-11-20T03:29:23;14.7;;;11.9;;
44126;SDS011;29786;50.798;7.302;2022-11-20T03:30:23;16;;;12.2;;
44126;SDS011;29786;50.798;7.302;2022-11-20T03:31:24;16.6;;;12.6;;
44126;SDS011;29786;50.798;7.302;2022-11-20T03:32:23;16.8;;;12.3;;
44126;SDS011;29786;50.798;7.302;2022-11-20T03:33:23;16.3;;;12.1;;
44126;SDS011;29786;50.798;7.302;2022-11-20T03:34:23;17.7;;;12.7;;
44126;SDS011;29786;50.798;7.302;2022-11-20T03:35:23;16.7;;;12.8;;
44126;SDS011;29786;50.798;7.302;2022-11-20T03:36:23;17.7;;;12.8;;
44126;SDS011;29786;50.798;7.302;2022-11-20T03:37:23;15.5;;;12;;
44126;SDS011;29786;50.798;7.302;2022-11-20T03:38:23;16.6;;;12.7;;
44126;SDS011;29786;50.798;7.302;2022-11-20T03:39:23;18.8;;;13.6;;
44126;SDS011;29786;50.798;7.302;2022-11-20T03:40:23;17.8;;;12.2;;
44126;SDS011;29786;50.798;7.302;2022-11-20T03:41:25;18.6;;;13.1;;
44126;SDS011;29786;50.798;7.302;2022-11-20T03:42:23;15.6;;;12.4;;
44126;SDS011;29786;50.798;7.302;2022-11-20T03:43:23;18.5;;;13;;
44126;SDS011;29786;50.798;7.302;2022-11-20T03:44:23;17.1;;;12.6;;
44126;SDS011;29786;50.798;7.302;2022-11-20T03:45:23;17.5;;;13.3;;
44126;SDS011;29786;50.798;7.302;2022-11-20T03:46:23;17.7;;;12.7;;
44126;SDS011;29786;50.798;7.302;2022-11-20T03:47:23;18.2;;;13.6;;
44126;SDS011;29786;50.798;7.302;2022-11-20T03:48:23;20.7;;;14.5;;
44126;SDS011;29786;50.798;7.302;2022-11-20T03:49:23;16.5;;;12.9;;
44126;SDS011;29786;50.798;7.302;2022-11-20T03:50:23;16;;;12.4;;
44126;SDS011;29786;50.798;7.302;2022-11-20T03:51:24;16.4;;;12.6;;
44126;SDS011;29786;50.798;7.302;2022-11-20T03:52:23;17.2;;;12.9;;
44126;SDS011;29786;50.798;7.302;2022-11-20T03:53:23;17.6;;;13;;
44126;SDS011;29786;50.798;7.302;2022-11-20T03:54:23;16.8;;;12.3;;
44126;SDS011;29786;50.798;7.302;2022-11-20T03:55:23;16.4;;;12.2;;
44126;SDS011;29786;50.798;7.302;2022-11-20T03:56:24;19.1;;;12.7;;
44126;SDS011;29786;50.798;7.302;2022-11-20T03:57:23;18;;;13;;
44126;SDS011;29786;50.798;7.302;2022-11-20T03:58:23;16.3;;;12.2;;
44126;SDS011;29786;50.798;7.302;2022-11-20T03:59:23;18.9;;;13.5;;
44126;SDS011;29786;50.798;7.302;2022-11-20T04:00:23;17.3;;;13.2;;
44126;SDS011;29786;50.798;7.302;2022-11-20T04:01:24;17.5;;;11.6;;
44126;SDS011;29786;50.798;7.302;2022-11-20T04:02:23;16.7;;;12.5;;
44126;SDS011;29786;50.798;7.302;2022-11-20T04:03:23;17.8;;;12.6;;
44126;SDS011;29786;50.798;7.302;2022-11-20T04:04:23;18.9;;;13.4;;
44126;SDS011;29786;50.798;7.302;2022-11-20T04:05:23;17.8;;;12.5;;
44126;SDS011;29786;50.798;7.302;2022-11-20T04:06:24;17.8;;;13.3;;
44126;SDS011;29786;50.798;7.302;2022-11-20T04:07:23;16.4;;;12;;
44126;SDS011;29786;50.798;7.302;2022-11-20T04:08:23;15.6;;;12;;
44126;SDS011;29786;50.798;7.302;2022-11-20T04:09:23;16.1;;;12;;
44126;SDS011;29786;50.798;7.302;2022-11-20T04:10:23;17.5;;;13.2;;
44126;SDS011;29786;50.798;7.302;2022-11-20T04:11:24;16.4;;;12.8;;
44126;SDS011;29786;50.798;7.302;2022-11-20T04:12:23;17;;;12.9;;
44126;SDS011;29786;50.798;7.302;2022-11-20T04:13:23;17.5;;;12.9;;
44126;SDS011;29786;50.798;7.302;2022-11-20T04:14:23;17.3;;;12.8;;
44126;SDS011;29786;50.798;7.302;2022-11-20T04:15:23;16.2;;;12.4;;
44126;SDS011;29786;50.798;7.302;2022-11-20T04:16:24;16.9;;;12.3;;
44126;SDS011;29786;50.798;7.302;2022-11-20T04:17:23;17.9;;;12.4;;
44126;SDS011;29786;50.798;7.302;2022-11-20T04:18:23;18.2;;;13.1;;
44126;SDS011;29786;50.798;7.302;2022-11-20T04:19:23;17.1;;;12.1;;
44126;SDS011;29786;50.798;7.302;2022-11-20T04:20:23;15.7;;;11.7;;
44126;SDS011;29786;50.798;7.302;2022-11-20T04:21:23;17.6;;;13;;
44126;SDS011;29786;50.798;7.302;2022-11-20T04:22:23;16.2;;;12.1;;
44126;SDS011;29786;50.798;7.302;2022-11-20T04:23:23;17;;;12.5;;
44126;SDS011;29786;50.798;7.302;2022-11-20T04:24:23;19.5;;;13.1;;
44126;SDS011;29786;50.798;7.302;2022-11-20T04:25:23;17.3;;;12.8;;
44126;SDS011;29786;50.798;7.302;2022-11-20T04:26:24;18.3;;;13.7;;
44126;SDS011;29786;50.798;7.302;2022-11-20T04:27:23;17.7;;;13.1;;
44126;SDS011;29786;50.798;7.302;2022-11-20T04:28:23;17.7;;;13.4;;
44126;SDS011;29786;50.798;7.302;2022-11-20T04:29:23;18.8;;;13.1;;
44126;SDS011;29786;50.798;7.302;2022-11-20T04:30:23;18;;;13.3;;
44126;SDS011;29786;50.798;7.302;2022-11-20T04:31:24;17.3;;;12.7;;
44126;SDS011;29786;50.798;7.302;2022-11-20T04:32:23;17.9;;;13.2;;
44126;SDS011;29786;50.798;7.302;2022-11-20T04:33:23;17;;;12.6;;
44126;SDS011;29786;50.798;7.302;2022-11-20T04:34:23;17.1;;;12.9;;
44126;SDS011;29786;50.798;7.302;2022-11-20T04:35:23;17.3;;;12.7;;
44126;SDS011;29786;50.798;7.302;2022-11-20T04:36:24;16.5;;;12.6;;
44126;SDS011;29786;50.798;7.302;2022-11-20T04:37:23;17.6;;;13;;
44126;SDS011;29786;50.798;7.302;2022-11-20T04:38:23;16;;;12.1;;
44126;SDS011;29786;50.798;7.302;2022-11-20T04:39:23;19.7;;;13.6;;
44126;SDS011;29786;50.798;7.302;2022-11-20T04:40:23;19;;;12.8;;
44126;SDS011;29786;50.798;7.302;2022-11-20T04:41:24;17.5;;;13;;
44126;SDS011;29786;50.798;7.302;2022-11-20T04:42:23;17.2;;;12.3;;
44126;SDS011;29786;50.798;7.302;2022-11-20T04:43:23;17.4;;;13.2;;
44126;SDS011;29786;50.798;7.302;2022-11-20T04:44:23;17.9;;;12.4;;
44126;SDS011;29786;50.798;7.302;2022-11-20T04:45:23;17.9;;;12.9;;
44126;SDS011;29786;50.798;7.302;2022-11-20T04:46:23;17.6;;;13.3;;
44126;SDS011;29786;50.798;7.302;2022-11-20T04:47:23;18.2;;;13.4;;
44126;SDS011;29786;50.798;7.302;2022-11-20T04:48:23;17.7;;;12.4;;
44126;SDS011;29786;50.798;7.302;2022-11-20T04:49:23;16.7;;;12.7;;
44126;SDS011;29786;50.798;7.302;2022-11-20T04:50:23;15.9;;;12.4;;
44126;SDS011;29786;50.798;7.302;2022-11-20T04:51:23;16.5;;;12.6;;
44126;SDS011;29786;50.798;7.302;2022-11-20T04:52:23;16.6;;;12.2;;
44126;SDS011;29786;50.798;7.302;2022-11-20T04:53:23;20.1;;;13.4;;
44126;SDS011;29786;50.798;7.302;2022-11-20T04:54:23;16.4;;;12.7;;
44126;SDS011;29786;50.798;7.302;2022-11-20T04:55:23;16;;;12.6;;
44126;SDS011;29786;50.798;7.302;2022-11-20T04:56:23;16.2;;;12.5;;
44126;SDS011;29786;50.798;7.302;2022-11-20T04:57:23;16.8;;;12.9;;
44126;SDS011;29786;50.798;7.302;2022-11-20T04:58:23;16.2;;;12.8;;
44126;SDS011;29786;50.798;7.302;2022-11-20T04:59:23;16.7;;;12.3;;
44126;SDS011;29786;50.798;7.302;2022-11-20T05:00:23;16.7;;;12.7;;
44126;SDS011;29786;50.798;7.302;2022-11-20T05:01:23;17.4;;;12.8;;
44126;SDS011;29786;50.798;7.302;2022-11-20T05:02:23;17.3;;;13;;
44126;SDS011;29786;50.798;7.302;2022-11-20T05:03:23;17.6;;;12.9;;
44126;SDS011;29786;50.798;7.302;2022-11-20T05:04:23;16;;;12.1;;
44126;SDS011;29786;50.798;7.302;2022-11-20T05:05:23;17.2;;;12.8;;
44126;SDS011;29786;50.798;7.302;2022-11-20T05:06:23;16.7;;;12.6;;
44126;SDS011;29786;50.798;7.302;2022-11-20T05:07:23;18.2;;;13.6;;
44126;SDS011;29786;50.798;7.302;2022-11-20T05:08:23;20;;;13.3;;
44126;SDS011;29786;50.798;7.302;2022-11-20T05:09:23;17.1;;;12.7;;
44126;SDS011;29786;50.798;7.302;2022-11-20T05:10:23;20;;;13.3;;
44126;SDS011;29786;50.798;7.302;2022-11-20T05:11:23;16.8;;;12.2;;
44126;SDS011;29786;50.798;7.302;2022-11-20T05:12:23;18.1;;;13.4;;
44126;SDS011;29786;50.798;7.302;2022-11-20T05:13:23;18.6;;;13.5;;
44126;SDS011;29786;50.798;7.302;2022-11-20T05:14:23;19.5;;;14.3;;
44126;SDS011;29786;50.798;7.302;2022-11-20T05:15:23;18.4;;;14;;
44126;SDS011;29786;50.798;7.302;2022-11-20T05:16:23;16.5;;;12.9;;
44126;SDS011;29786;50.798;7.302;2022-11-20T05:17:23;17.9;;;13;;
44126;SDS011;29786;50.798;7.302;2022-11-20T05:18:23;18.1;;;13.7;;
44126;SDS011;29786;50.798;7.302;2022-11-20T05:19:23;15.8;;;12.8;;
44126;SDS011;29786;50.798;7.302;2022-11-20T05:20:23;17.9;;;13.1;;
44126;SDS011;29786;50.798;7.302;2022-11-20T05:21:23;19.9;;;13.7;;
44126;SDS011;29786;50.798;7.302;2022-11-20T05:22:23;17.9;;;13.2;;
44126;SDS011;29786;50.798;7.302;2022-11-20T05:23:23;17.3;;;12.6;;
44126;SDS011;29786;50.798;7.302;2022-11-20T05:24:23;16.7;;;12.3;;
44126;SDS011;29786;50.798;7.302;2022-11-20T05:25:23;16.6;;;12.6;;
44126;SDS011;29786;50.798;7.302;2022-11-20T05:26:23;21.3;;;15;;
44126;SDS011;29786;50.798;7.302;2022-11-20T05:27:23;20;;;13.5;;
44126;SDS011;29786;50.798;7.302;2022-11-20T05:28:23;19.1;;;14.5;;
44126;SDS011;29786;50.798;7.302;2022-11-20T05:29:23;19.3;;;14;;
44126;SDS011;29786;50.798;7.302;2022-11-20T05:30:23;20.5;;;14.5;;
44126;SDS011;29786;50.798;7.302;2022-11-20T05:31:23;21.4;;;15.4;;
44126;SDS011;29786;50.798;7.302;2022-11-20T05:32:23;21.6;;;15.6;;
44126;SDS011;29786;50.798;7.302;2022-11-20T05:33:23;19.9;;;14.7;;
44126;SDS011;29786;50.798;7.302;2022-11-20T05:34:23;21.6;;;15.6;;
44126;SDS011;29786;50.798;7.302;2022-11-20T05:35:23;20.3;;;15.5;;
44126;SDS011;29786;50.798;7.302;2022-11-20T05:36:23;21.2;;;16.2;;
44126;SDS011;29786;50.798;7.302;2022-11-20T05:37:23;19.6;;;14.1;;
44126;SDS011;29786;50.798;7.302;2022-11-20T05:38:23;20.7;;;15.5;;
44126;SDS011;29786;50.798;7.302;2022-11-20T05:39:23;21.4;;;15.8;;
44126;SDS011;29786;50.798;7.302;2022-11-20T05:40:23;20.4;;;14.9;;
44126;SDS011;29786;50.798;7.302;2022-11-20T05:41:23;17.8;;;13.3;;
44126;SDS011;29786;50.798;7.302;2022-11-20T05:42:23;19.4;;;14.3;;
44126;SDS011;29786;50.798;7.302;2022-11-20T05:43:23;17.6;;;13.4;;
44126;SDS011;29786;50.798;7.302;2022-11-20T05:44:23;19.2;;;14.5;;
44126;SDS011;29786;50.798;7.302;2022-11-20T05:45:23;20.4;;;15.4;;
44126;SDS011;29786;50.798;7.302;2022-11-20T05:46:23;20.3;;;14.6;;
44126;SDS011;29786;50.798;7.302;2022-11-20T05:47:23;20.6;;;14.9;;
44126;SDS011;29786;50.798;7.302;2022-11-20T05:48:23;18.2;;;13.7;;
44126;SDS011;29786;50.798;7.302;2022-11-20T05:49:23;19.7;;;14.8;;
44126;SDS011;29786;50.798;7.302;2022-11-20T05:50:23;21.2;;;14.8;;
44126;SDS011;29786;50.798;7.302;2022-11-20T05:51:23;20.9;;;15.2;;
44126;SDS011;29786;50.798;7.302;2022-11-20T05:52:23;21;;;15;;
44126;SDS011;29786;50.798;7.302;2022-11-20T05:53:23;22.3;;;14.9;;
44126;SDS011;29786;50.798;7.302;2022-11-20T05:54:23;19.8;;;13.5;;
44126;SDS011;29786;50.798;7.302;2022-11-20T05:55:23;20.8;;;14.3;;
44126;SDS011;29786;50.798;7.302;2022-11-20T05:56:23;20.8;;;15;;
44126;SDS011;29786;50.798;7.302;2022-11-20T05:57:23;22.8;;;16.1;;
44126;SDS011;29786;50.798;7.302;2022-11-20T05:58:23;19.1;;;13.7;;
44126;SDS011;29786;50.798;7.302;2022-11-20T05:59:23;22.6;;;14.4;;
44126;SDS011;29786;50.798;7.302;2022-11-20T06:00:23;20.1;;;14.1;;
44126;SDS011;29786;50.798;7.302;2022-11-20T06:01:24;18.5;;;13.4;;
44126;SDS011;29786;50.798;7.302;2022-11-20T06:02:23;17;;;12.6;;
44126;SDS011;29786;50.798;7.302;2022-11-20T06:03:23;18.1;;;13.7;;
44126;SDS011;29786;50.798;7.302;2022-11-20T06:04:23;19.8;;;13.9;;